Time;durP1;ratioP1;P1;durP2;ratioP2;P2;SDS_P1;SDS_P2;PMS_P1;PMS_P2;Temp;Humidity;BMP_temperature;BMP_pressure;BME280_temperature;BME280_humidity;BME280_pressure;Samples;Min_cycle;Max_cycle;Signal;HPM_P1;HPM_P2
2023/06/11 00:01:32;;;;;;;2.67;0.30;;;;;;;;;;5006682;28;20034;-80
2023/06/11 00:03:58;;;;;;;0.50;0.35;;;;;;;;;;4991381;28;20527;-80
2023/06/11 00:06:24;;;;;;;1.65;0.40;;;;;;;;;;4992738;28;20075;-80
2023/06/11 00:08:51;;;;;;;0.20;0.20;;;;;;;;;;5004761;28;20029;-79
2023/06/11 00:11:18;;;;;;;0.85;0.20;;;;;;;;;;4995364;28;20048;-79
2023/06/11 00:13:44;;;;;;;0.55;0.50;;;;;;;;;;5022651;28;20045;-79
2023/06/11 00:16:12;;;;;;;0.30;0.30;;;;;;;;;;4984240;28;20218;-79
2023/06/11 00:18:40;;;;;;;0.20;0.10;;;;;;;;;;5005071;28;20116;-79
2023/06/11 00:21:07;;;;;;;0.20;0.20;;;;;;;;;;4987861;28;20553;-78
2023/06/11 00:23:35;;;;;;;0.20;0.17;;;;;;;;;;4993768;28;20132;-79
2023/06/11 00:26:01;;;;;;;0.30;0.30;;;;;;;;;;5008243;28;20095;-78
2023/06/11 00:28:27;;;;;;;0.35;0.25;;;;;;;;;;5001919;28;20037;-78
2023/06/11 00:30:53;;;;;;;0.68;0.63;;;;;;;;;;4998826;28;20321;-78
2023/06/11 00:33:19;;;;;;;0.38;0.38;;;;;;;;;;5001307;28;20049;-77
2023/06/11 00:35:45;;;;;;;0.90;0.40;;;;;;;;;;4982628;28;20046;-78
2023/06/11 00:38:11;;;;;;;1.60;0.80;;;;;;;;;;4986373;28;20068;-79
2023/06/11 00:40:37;;;;;;;0.25;0.20;;;;;;;;;;4998717;28;20053;-78
2023/06/11 00:43:04;;;;;;;0.20;0.20;;;;;;;;;;4999924;28;20066;-78
2023/06/11 00:45:32;;;;;;;0.20;0.20;;;;;;;;;;5000888;28;20046;-77
2023/06/11 00:47:58;;;;;;;0.32;0.20;;;;;;;;;;4989607;28;20042;-79
2023/06/11 00:50:24;;;;;;;0.40;0.30;;;;;;;;;;5001944;28;20037;-79
2023/06/11 00:52:50;;;;;;;0.43;0.20;;;;;;;;;;5002094;28;20060;-79
2023/06/11 00:55:17;;;;;;;0.20;0.13;;;;;;;;;;4979851;28;20034;-79
2023/06/11 00:57:44;;;;;;;0.20;0.20;;;;;;;;;;4987421;28;20049;-79
2023/06/11 01:00:12;;;;;;;0.50;0.40;;;;;;;;;;4992710;28;20470;-79
2023/06/11 01:02:51;;;;;;;0.22;0.17;;;;;;;;;;4989649;28;20037;-79
2023/06/11 01:05:21;;;;;;;0.20;0.20;;;;;;;;;;4987509;28;20060;-79
2023/06/11 01:07:51;;;;;;;0.20;0.20;;;;;;;;;;4984166;28;20417;-79
2023/06/11 01:10:21;;;;;;;0.73;0.50;;;;;;;;;;4974367;28;20049;-79
2023/06/11 01:12:47;;;;;;;0.20;0.20;;;;;;;;;;4989002;28;21669;-79
2023/06/11 01:15:14;;;;;;;0.20;0.10;;;;;;;;;;4989014;28;20041;-79
2023/06/11 01:17:55;;;;;;;0.28;0.28;;;;;;;;;;4984740;28;20072;-78
2023/06/11 01:20:30;;;;;;;0.20;0.10;;;;;;;;;;4988271;28;20038;-79
2023/06/11 01:23:15;;;;;;;0.20;0.20;;;;;;;;;;4970871;28;20041;-78
2023/06/11 01:25:54;;;;;;;0.30;0.30;;;;;;;;;;4984903;28;20304;-77
2023/06/11 01:28:27;;;;;;;0.30;0.20;;;;;;;;;;4975260;28;20100;-77
2023/06/11 01:30:53;;;;;;;;;;;;;;;;;;4968832;28;20551;-78
2023/06/11 01:33:19;;;;;;;0.55;0.47;;;;;;;;;;4999955;28;20023;-79
2023/06/11 01:35:46;;;;;;;0.20;0.20;;;;;;;;;;4986408;28;20199;-77
2023/06/11 01:38:13;;;;;;;0.20;0.20;;;;;;;;;;4973573;28;20037;-78
2023/06/11 01:40:39;;;;;;;0.30;0.30;;;;;;;;;;4975173;28;20042;-79
2023/06/11 01:43:06;;;;;;;0.30;0.20;;;;;;;;;;4976495;28;20045;-79
2023/06/11 01:45:32;;;;;;;0.20;0.10;;;;;;;;;;4992167;28;20526;-77
2023/06/11 01:47:59;;;;;;;0.55;0.55;;;;;;;;;;4987740;28;20457;-79
2023/06/11 01:50:25;;;;;;;0.20;0.20;;;;;;;;;;4995295;28;20045;-79
2023/06/11 01:52:51;;;;;;;0.28;0.20;;;;;;;;;;4970354;28;20045;-79
2023/06/11 01:55:17;;;;;;;0.20;0.20;;;;;;;;;;4978179;28;20046;-79
2023/06/11 01:57:43;;;;;;;0.22;0.22;;;;;;;;;;4990971;28;20176;-78
2023/06/11 02:00:10;;;;;;;0.70;0.40;;;;;;;;;;5007380;28;20344;-78
2023/06/11 02:02:36;;;;;;;0.20;0.10;;;;;;;;;;4999403;28;20037;-79
2023/06/11 02:05:02;;;;;;;0.57;0.30;;;;;;;;;;4979127;28;20053;-79
2023/06/11 02:07:28;;;;;;;0.32;0.25;;;;;;;;;;4982427;28;20057;-78
2023/06/11 02:09:54;;;;;;;0.20;0.20;;;;;;;;;;4998824;28;20045;-79
2023/06/11 02:12:21;;;;;;;0.20;0.20;;;;;;;;;;4997554;28;20041;-80
2023/06/11 02:14:46;;;;;;;0.20;0.10;;;;;;;;;;4972402;28;20486;-79
2023/06/11 02:17:13;;;;;;;0.35;0.25;;;;;;;;;;4978764;28;20807;-80
2023/06/11 02:19:39;;;;;;;0.40;0.40;;;;;;;;;;5017255;28;20038;-79
2023/06/11 02:22:05;;;;;;;0.52;0.50;;;;;;;;;;4993271;28;20045;-79
2023/06/11 02:24:31;;;;;;;0.20;0.10;;;;;;;;;;4975804;28;20053;-79
2023/06/11 02:26:57;;;;;;;0.35;0.35;;;;;;;;;;4988417;28;20045;-80
2023/06/11 02:29:23;;;;;;;0.30;0.30;;;;;;;;;;4985295;28;20422;-79
2023/06/11 02:31:49;;;;;;;0.20;0.20;;;;;;;;;;4998421;28;20531;-79
2023/06/11 02:34:15;;;;;;;0.47;0.32;;;;;;;;;;4997132;28;20041;-80
2023/06/11 02:36:41;;;;;;;0.43;0.30;;;;;;;;;;4991646;28;20187;-79
2023/06/11 02:39:07;;;;;;;0.20;0.20;;;;;;;;;;4974300;28;20041;-80
2023/06/11 02:41:33;;;;;;;0.20;0.20;;;;;;;;;;4984800;28;20069;-79
2023/06/11 02:43:59;;;;;;;0.63;0.20;;;;;;;;;;4993763;28;20356;-81
2023/06/11 02:46:25;;;;;;;0.32;0.20;;;;;;;;;;4987863;28;20048;-79
2023/06/11 02:48:52;;;;;;;0.22;0.20;;;;;;;;;;4988643;28;20125;-80
2023/06/11 02:51:18;;;;;;;0.20;0.13;;;;;;;;;;4998609;28;20397;-79
2023/06/11 02:53:44;;;;;;;0.50;0.40;;;;;;;;;;4995599;28;20482;-80
2023/06/11 02:56:10;;;;;;;0.28;0.28;;;;;;;;;;4971456;28;20041;-79
2023/06/11 02:58:36;;;;;;;0.20;0.17;;;;;;;;;;4998518;28;20191;-78
2023/06/11 03:01:03;;;;;;;0.20;0.10;;;;;;;;;;4992592;28;20420;-79
2023/06/11 03:03:29;;;;;;;0.20;0.20;;;;;;;;;;4990060;28;20153;-78
2023/06/11 03:05:55;;;;;;;0.20;0.20;;;;;;;;;;4988030;28;20053;-78
2023/06/11 03:08:21;;;;;;;0.60;0.40;;;;;;;;;;4975509;28;20049;-77
2023/06/11 03:10:47;;;;;;;0.45;0.20;;;;;;;;;;4993862;28;20064;-79
2023/06/11 03:13:13;;;;;;;0.25;0.25;;;;;;;;;;4989878;28;20452;-79
2023/06/11 03:15:39;;;;;;;0.60;0.50;;;;;;;;;;4989342;28;20419;-78
2023/06/11 03:18:05;;;;;;;0.30;0.20;;;;;;;;;;4998405;28;20034;-80
2023/06/11 03:20:31;;;;;;;0.35;0.30;;;;;;;;;;4993478;28;20037;-78
2023/06/11 03:22:57;;;;;;;0.38;0.32;;;;;;;;;;4992033;28;20103;-80
2023/06/11 03:25:23;;;;;;;0.30;0.30;;;;;;;;;;4972683;28;20045;-78
2023/06/11 03:27:49;;;;;;;0.60;0.45;;;;;;;;;;4992696;28;20572;-78
2023/06/11 03:30:15;;;;;;;0.85;0.50;;;;;;;;;;4989411;28;20048;-79
2023/06/11 03:32:41;;;;;;;0.20;0.15;;;;;;;;;;4992819;28;20037;-78
2023/06/11 03:35:07;;;;;;;0.73;0.40;;;;;;;;;;4991952;28;20052;-79
2023/06/11 03:37:33;;;;;;;0.50;0.30;;;;;;;;;;4993759;28;20499;-79
2023/06/11 03:39:59;;;;;;;0.20;0.20;;;;;;;;;;4987828;28;20096;-78
2023/06/11 03:42:25;;;;;;;0.47;0.32;;;;;;;;;;4995490;28;20412;-79
2023/06/11 03:44:53;;;;;;;1.17;0.77;;;;;;;;;;4977090;28;20127;-79
2023/06/11 03:47:19;;;;;;;0.70;0.52;;;;;;;;;;4991508;28;20045;-78
2023/06/11 03:49:45;;;;;;;1.27;0.77;;;;;;;;;;5007782;28;20048;-79
2023/06/11 03:52:11;;;;;;;0.20;0.15;;;;;;;;;;4992905;28;20052;-80
2023/06/11 03:54:37;;;;;;;0.55;0.20;;;;;;;;;;4986467;28;20083;-78
2023/06/11 03:57:03;;;;;;;0.38;0.30;;;;;;;;;;4993589;28;20048;-79
2023/06/11 03:59:30;;;;;;;0.40;0.35;;;;;;;;;;4979203;28;20034;-80
2023/06/11 04:01:56;;;;;;;0.55;0.32;;;;;;;;;;4974803;28;20041;-78
2023/06/11 04:04:22;;;;;;;0.22;0.20;;;;;;;;;;5007681;28;20580;-79
2023/06/11 04:06:48;;;;;;;1.10;0.40;;;;;;;;;;4991392;28;20041;-79
2023/06/11 04:09:14;;;;;;;0.65;0.40;;;;;;;;;;4975578;28;20743;-79
2023/06/11 04:11:40;;;;;;;0.45;0.30;;;;;;;;;;4968512;28;20369;-79
2023/06/11 04:14:06;;;;;;;0.57;0.20;;;;;;;;;;4978348;28;20194;-78
2023/06/11 04:16:32;;;;;;;0.20;0.10;;;;;;;;;;4992931;28;20045;-79
2023/06/11 04:18:58;;;;;;;0.20;0.20;;;;;;;;;;4990511;28;20083;-79
2023/06/11 04:21:24;;;;;;;0.63;0.30;;;;;;;;;;4990155;28;20033;-80
2023/06/11 04:23:50;;;;;;;0.32;0.20;;;;;;;;;;4997799;28;20041;-80
2023/06/11 04:26:16;;;;;;;0.30;0.20;;;;;;;;;;4980243;28;20044;-80
2023/06/11 04:28:45;;;;;;;0.40;0.25;;;;;;;;;;4980110;28;20292;-82
2023/06/11 04:31:14;;;;;;;0.40;0.40;;;;;;;;;;4965309;28;20042;-78
2023/06/11 04:33:40;;;;;;;0.30;0.30;;;;;;;;;;4998838;28;20037;-78
2023/06/11 04:36:07;;;;;;;0.55;0.55;;;;;;;;;;5003800;28;20410;-79
2023/06/11 04:38:37;;;;;;;0.63;0.32;;;;;;;;;;4972914;28;20568;-79
2023/06/11 04:41:06;;;;;;;0.50;0.50;;;;;;;;;;4991623;28;20041;-79
2023/06/11 04:43:33;;;;;;;0.65;0.40;;;;;;;;;;4986600;28;20052;-79
2023/06/11 04:46:03;;;;;;;0.20;0.20;;;;;;;;;;4992688;28;20077;-78
2023/06/11 04:48:31;;;;;;;0.40;0.30;;;;;;;;;;5002104;28;20124;-78
2023/06/11 04:50:59;;;;;;;0.20;0.10;;;;;;;;;;4977350;28;20379;-79
2023/06/11 04:53:27;;;;;;;0.30;0.20;;;;;;;;;;4971393;28;20053;-79
2023/06/11 04:55:54;;;;;;;0.40;0.30;;;;;;;;;;4991884;28;20112;-79
2023/06/11 04:58:27;;;;;;;0.38;0.30;;;;;;;;;;4991611;28;20052;-79
2023/06/11 05:00:56;;;;;;;0.30;0.20;;;;;;;;;;4991884;28;20541;-78
2023/06/11 05:03:24;;;;;;;1.10;0.40;;;;;;;;;;4992919;28;20678;-78
2023/06/11 05:05:51;;;;;;;0.30;0.30;;;;;;;;;;4998091;28;20059;-80
2023/06/11 05:08:21;;;;;;;0.47;0.30;;;;;;;;;;5002499;28;20147;-78
2023/06/11 05:10:47;;;;;;;0.55;0.38;;;;;;;;;;4992548;23;20541;-81
2023/06/11 05:13:14;;;;;;;0.40;0.30;;;;;;;;;;5013570;28;20124;-82
2023/06/11 05:15:40;;;;;;;0.30;0.20;;;;;;;;;;5012906;28;20457;-82
2023/06/11 05:18:06;;;;;;;0.20;0.10;;;;;;;;;;5010305;28;20144;-85
2023/06/11 05:20:32;;;;;;;0.50;0.20;;;;;;;;;;4994335;28;20072;-80
2023/06/11 05:22:59;;;;;;;0.45;0.30;;;;;;;;;;5008562;28;20060;-80
2023/06/11 05:25:29;;;;;;;0.40;0.35;;;;;;;;;;4990603;28;20413;-81
2023/06/11 05:27:55;;;;;;;1.10;0.55;;;;;;;;;;5009326;28;20037;-79
2023/06/11 05:30:24;;;;;;;0.30;0.25;;;;;;;;;;5008069;28;20037;-79
2023/06/11 05:32:51;;;;;;;0.32;0.30;;;;;;;;;;4982839;28;20099;-79
2023/06/11 05:35:17;;;;;;;0.32;0.32;;;;;;;;;;5006201;28;20064;-81
2023/06/11 05:37:43;;;;;;;0.50;0.20;;;;;;;;;;5007472;28;20545;-80
2023/06/11 05:40:11;;;;;;;0.20;0.13;;;;;;;;;;5009272;28;20042;-80
2023/06/11 05:42:37;;;;;;;2.03;1.05;;;;;;;;;;4998000;28;20037;-80
2023/06/11 05:45:04;;;;;;;0.40;0.32;;;;;;;;;;4998852;28;21435;-82
2023/06/11 05:47:30;;;;;;;0.25;0.20;;;;;;;;;;5007435;28;20056;-83
2023/06/11 05:49:56;;;;;;;0.30;0.20;;;;;;;;;;4991578;28;20041;-84
2023/06/11 05:52:22;;;;;;;0.50;0.40;;;;;;;;;;4989100;28;21269;-81
2023/06/11 05:54:49;;;;;;;0.47;0.30;;;;;;;;;;5007907;28;20050;-79
2023/06/11 05:57:24;;;;;;;0.35;0.35;;;;;;;;;;5007615;28;20124;-81
2023/06/11 05:59:53;;;;;;;0.20;0.20;;;;;;;;;;5007566;28;20105;-80
2023/06/11 06:02:19;;;;;;;0.22;0.20;;;;;;;;;;5005967;28;20111;-82
2023/06/11 06:04:49;;;;;;;0.55;0.30;;;;;;;;;;5011987;28;20128;-79
2023/06/11 06:07:15;;;;;;;0.20;0.10;;;;;;;;;;4998328;28;20136;-80
2023/06/11 06:09:41;;;;;;;0.45;0.35;;;;;;;;;;4996856;28;20473;-80
2023/06/11 06:12:08;;;;;;;0.20;0.10;;;;;;;;;;5008487;28;20041;-82
2023/06/11 06:14:34;;;;;;;0.20;0.20;;;;;;;;;;4997889;28;20041;-82
2023/06/11 06:17:00;;;;;;;0.30;0.20;;;;;;;;;;5016889;28;20037;-82
2023/06/11 06:19:26;;;;;;;0.40;0.15;;;;;;;;;;5010277;28;20489;-83
2023/06/11 06:21:52;;;;;;;0.20;0.20;;;;;;;;;;5014474;28;20367;-81
2023/06/11 06:24:18;;;;;;;0.22;0.20;;;;;;;;;;5016103;28;20049;-81
2023/06/11 06:26:44;;;;;;;0.20;0.10;;;;;;;;;;5019828;28;20542;-82
2023/06/11 06:29:12;;;;;;;0.38;0.38;;;;;;;;;;4996743;28;20046;-81
2023/06/11 06:31:40;;;;;;;0.20;0.20;;;;;;;;;;5007223;28;20056;-81
2023/06/11 06:34:06;;;;;;;0.30;0.20;;;;;;;;;;5008172;28;20467;-83
2023/06/11 06:36:32;;;;;;;0.30;0.28;;;;;;;;;;4990215;28;20045;-82
2023/06/11 06:38:58;;;;;;;0.20;0.10;;;;;;;;;;5010596;28;20744;-83
2023/06/11 06:41:24;;;;;;;0.20;0.10;;;;;;;;;;5014648;28;20079;-82
2023/06/11 06:43:51;;;;;;;0.32;0.25;;;;;;;;;;4995399;28;20097;-86
2023/06/11 06:46:17;;;;;;;0.35;0.28;;;;;;;;;;5003948;28;20103;-84
2023/06/11 06:48:43;;;;;;;0.32;0.30;;;;;;;;;;5004698;28;20920;-85
2023/06/11 06:51:09;;;;;;;0.30;0.30;;;;;;;;;;5009970;28;20045;-83
2023/06/11 06:53:35;;;;;;;0.22;0.13;;;;;;;;;;4992257;28;20442;-88
2023/06/11 06:56:02;;;;;;;0.20;0.20;;;;;;;;;;5005466;28;20565;-83
2023/06/11 06:58:28;;;;;;;0.20;0.10;;;;;;;;;;5009788;28;20049;-82
2023/06/11 07:00:54;;;;;;;0.20;0.20;;;;;;;;;;4990018;28;20069;-84
2023/06/11 07:03:21;;;;;;;0.57;0.40;;;;;;;;;;5006765;28;20041;-80
2023/06/11 07:05:48;;;;;;;0.50;0.35;;;;;;;;;;4990599;28;20041;-82
2023/06/11 07:08:14;;;;;;;0.20;0.10;;;;;;;;;;4992599;28;20045;-82
2023/06/11 07:10:48;;;;;;;0.28;0.22;;;;;;;;;;4992401;28;20481;-82
2023/06/11 07:13:14;;;;;;;0.20;0.10;;;;;;;;;;5007540;28;20045;-82
2023/06/11 07:15:40;;;;;;;0.20;0.10;;;;;;;;;;4988340;28;20398;-84
2023/06/11 07:18:06;;;;;;;0.38;0.30;;;;;;;;;;4995528;28;20041;-83
2023/06/11 07:20:32;;;;;;;0.20;0.17;;;;;;;;;;4993876;28;20325;-83
2023/06/11 07:22:59;;;;;;;1.60;0.32;;;;;;;;;;4991438;28;20446;-84
2023/06/11 07:25:28;;;;;;;0.20;0.10;;;;;;;;;;5013753;28;20091;-84
2023/06/11 07:27:54;;;;;;;0.20;0.20;;;;;;;;;;4992483;28;20455;-84
2023/06/11 07:30:21;;;;;;;0.20;0.10;;;;;;;;;;5002460;28;20045;-82
2023/06/11 07:32:47;;;;;;;0.88;0.40;;;;;;;;;;5004385;28;20132;-84
2023/06/11 07:35:13;;;;;;;0.65;0.45;;;;;;;;;;4989704;28;20053;-84
2023/06/11 07:37:39;;;;;;;0.30;0.30;;;;;;;;;;5000080;28;20033;-83
2023/06/11 07:40:06;;;;;;;0.20;0.10;;;;;;;;;;4990840;28;20034;-82
2023/06/11 07:42:32;;;;;;;0.63;0.50;;;;;;;;;;5008430;28;20074;-82
2023/06/11 07:44:58;;;;;;;0.20;0.10;;;;;;;;;;5006440;28;20045;-83
2023/06/11 07:47:24;;;;;;;0.47;0.30;;;;;;;;;;4986932;28;20054;-85
2023/06/11 07:49:50;;;;;;;0.25;0.25;;;;;;;;;;4991074;28;20579;-82
2023/06/11 07:52:16;;;;;;;0.22;0.20;;;;;;;;;;4979664;28;21020;-81
2023/06/11 07:54:42;;;;;;;0.38;0.20;;;;;;;;;;5006491;28;20045;-83
2023/06/11 07:57:08;;;;;;;0.40;0.28;;;;;;;;;;4991312;28;20383;-81
2023/06/11 07:59:36;;;;;;;0.20;0.17;;;;;;;;;;5009688;28;20465;-84
2023/06/11 08:02:03;;;;;;;0.52;0.35;;;;;;;;;;5008229;28;20425;-83
2023/06/11 08:04:29;;;;;;;0.20;0.20;;;;;;;;;;5006699;28;20080;-86
2023/06/11 08:06:55;;;;;;;0.30;0.22;;;;;;;;;;4997601;28;20041;-83
2023/06/11 08:09:21;;;;;;;0.20;0.15;;;;;;;;;;5012663;28;20037;-84
2023/06/11 08:11:47;;;;;;;0.20;0.20;;;;;;;;;;5005885;28;20557;-81
2023/06/11 08:14:13;;;;;;;0.20;0.20;;;;;;;;;;5002732;28;20060;-84
2023/06/11 08:16:40;;;;;;;0.75;0.38;;;;;;;;;;4989160;28;20132;-82
2023/06/11 08:19:07;;;;;;;0.22;0.22;;;;;;;;;;4993093;28;20587;-82
2023/06/11 08:21:32;;;;;;;0.20;0.20;;;;;;;;;;4991466;28;20676;-81
2023/06/11 08:23:58;;;;;;;0.30;0.30;;;;;;;;;;4996820;28;20042;-84
2023/06/11 08:26:25;;;;;;;0.38;0.30;;;;;;;;;;4991254;28;20110;-86
2023/06/11 08:28:52;;;;;;;0.47;0.40;;;;;;;;;;5001053;28;20052;-84
2023/06/11 08:31:18;;;;;;;0.30;0.20;;;;;;;;;;4999375;28;20079;-82
2023/06/11 08:33:44;;;;;;;0.40;0.20;;;;;;;;;;5001864;28;20041;-84
2023/06/11 08:36:10;;;;;;;0.57;0.40;;;;;;;;;;4999837;28;20041;-84
2023/06/11 08:38:36;;;;;;;0.82;0.55;;;;;;;;;;5006094;28;20087;-84
2023/06/11 08:41:02;;;;;;;0.20;0.20;;;;;;;;;;5001658;28;20536;-84
2023/06/11 08:43:28;;;;;;;0.20;0.20;;;;;;;;;;4997746;28;20533;-83
2023/06/11 08:45:54;;;;;;;0.25;0.22;;;;;;;;;;5006040;28;20087;-86
2023/06/11 08:48:21;;;;;;;0.20;0.20;;;;;;;;;;5002716;28;20454;-81
2023/06/11 08:50:50;;;;;;;0.30;0.22;;;;;;;;;;5002818;28;20514;-83
2023/06/11 08:53:17;;;;;;;0.40;0.40;;;;;;;;;;4990363;28;20848;-84
2023/06/11 08:55:44;;;;;;;0.93;0.40;;;;;;;;;;4991192;28;20053;-81
2023/06/11 08:58:11;;;;;;;1.45;0.40;;;;;;;;;;5006926;28;20098;-80
2023/06/11 09:00:37;;;;;;;0.50;0.25;;;;;;;;;;5009195;28;20049;-83
2023/06/11 09:03:04;;;;;;;0.55;0.32;;;;;;;;;;5010470;28;20124;-83
2023/06/11 09:05:31;;;;;;;0.73;0.50;;;;;;;;;;5009798;28;20621;-83
2023/06/11 09:07:57;;;;;;;0.40;0.30;;;;;;;;;;4992755;28;20971;-82
2023/06/11 09:10:23;;;;;;;0.20;0.20;;;;;;;;;;5008528;28;20512;-85
2023/06/11 09:12:49;;;;;;;0.28;0.20;;;;;;;;;;4973425;28;20103;-86
2023/06/11 09:15:15;;;;;;;0.40;0.40;;;;;;;;;;4977392;28;20452;-83
2023/06/11 09:17:42;;;;;;;0.30;0.20;;;;;;;;;;4977283;28;20037;-83
2023/06/11 09:20:09;;;;;;;0.35;0.25;;;;;;;;;;4970555;28;20588;-84
2023/06/11 09:22:37;;;;;;;0.52;0.30;;;;;;;;;;4994540;28;20511;-84
2023/06/11 09:25:09;;;;;;;0.20;0.20;;;;;;;;;;4992394;28;20535;-84
2023/06/11 09:27:40;;;;;;;0.30;0.30;;;;;;;;;;4974723;28;20808;-83
2023/06/11 09:30:07;;;;;;;0.40;0.38;;;;;;;;;;4980264;28;20333;-82
2023/06/11 09:32:37;;;;;;;0.20;0.10;;;;;;;;;;4969540;28;20351;-83
2023/06/11 09:35:05;;;;;;;0.60;0.38;;;;;;;;;;4979315;28;20496;-84
2023/06/11 09:37:32;;;;;;;0.30;0.30;;;;;;;;;;4995885;28;20315;-85
2023/06/11 09:39:58;;;;;;;0.30;0.30;;;;;;;;;;4972875;28;20048;-87
2023/06/11 09:42:26;;;;;;;0.47;0.20;;;;;;;;;;4989639;28;20756;-83
2023/06/11 09:44:52;;;;;;;0.38;0.25;;;;;;;;;;4982899;28;20486;-84
2023/06/11 09:47:18;;;;;;;0.20;0.17;;;;;;;;;;4995345;28;20049;-86
2023/06/11 09:49:45;;;;;;;0.20;0.20;;;;;;;;;;4977891;28;20553;-82
2023/06/11 09:52:12;;;;;;;0.30;0.30;;;;;;;;;;4996519;28;20042;-84
2023/06/11 09:54:39;;;;;;;0.30;0.30;;;;;;;;;;4994799;28;20048;-83
2023/06/11 09:57:06;;;;;;;0.32;0.30;;;;;;;;;;4995779;28;20386;-82
2023/06/11 09:59:34;;;;;;;0.38;0.30;;;;;;;;;;4994465;28;20037;-84
2023/06/11 10:02:03;;;;;;;0.40;0.20;;;;;;;;;;4998839;28;20440;-83
2023/06/11 10:04:29;;;;;;;0.20;0.17;;;;;;;;;;4996377;28;20580;-84
2023/06/11 10:06:55;;;;;;;0.30;0.25;;;;;;;;;;4982222;28;20550;-82
2023/06/11 10:09:21;;;;;;;0.32;0.28;;;;;;;;;;4993672;28;20050;-83
2023/06/11 10:11:47;;;;;;;0.30;0.22;;;;;;;;;;5005139;28;20605;-87
2023/06/11 10:14:17;;;;;;;0.32;0.30;;;;;;;;;;5013621;28;20053;-84
2023/06/11 10:16:56;;;;;;;0.30;0.28;;;;;;;;;;4992681;28;20164;-82
2023/06/11 10:19:22;;;;;;;0.22;0.20;;;;;;;;;;4992620;28;20046;-83
2023/06/11 10:21:50;;;;;;;0.25;0.25;;;;;;;;;;5012031;28;20545;-82
2023/06/11 10:24:23;;;;;;;0.30;0.20;;;;;;;;;;5014985;28;20053;-85
2023/06/11 10:27:07;;;;;;;0.20;0.13;;;;;;;;;;4991831;28;20163;-81
2023/06/11 10:29:49;;;;;;;0.28;0.17;;;;;;;;;;5012968;28;20041;-83
2023/06/11 10:32:19;;;;;;;0.38;0.30;;;;;;;;;;4989014;28;20041;-83
2023/06/11 10:34:45;;;;;;;0.20;0.20;;;;;;;;;;4986216;28;20037;-81
2023/06/11 10:37:15;;;;;;;0.63;0.35;;;;;;;;;;5011993;28;20128;-84
2023/06/11 10:39:51;;;;;;;0.22;0.22;;;;;;;;;;5010318;28;20421;-82
2023/06/11 10:42:22;;;;;;;0.20;0.20;;;;;;;;;;4992339;28;20041;-81
2023/06/11 10:44:48;;;;;;;1.33;0.40;;;;;;;;;;5012681;28;20116;-84
2023/06/11 10:47:14;;;;;;;0.20;0.13;;;;;;;;;;5012125;28;20147;-84
2023/06/11 10:49:40;;;;;;;0.20;0.20;;;;;;;;;;5023839;28;20049;-83
2023/06/11 10:52:06;;;;;;;0.43;0.30;;;;;;;;;;5011434;28;20656;-84
2023/06/11 10:54:34;;;;;;;0.38;0.17;;;;;;;;;;4995937;28;20041;-80
2023/06/11 10:57:03;;;;;;;0.35;0.35;;;;;;;;;;5008335;28;20052;-84
2023/06/11 10:59:31;;;;;;;0.30;0.25;;;;;;;;;;5009611;28;20047;-83
2023/06/11 11:01:58;;;;;;;0.20;0.20;;;;;;;;;;4992989;28;20044;-85
2023/06/11 11:04:24;;;;;;;0.85;0.30;;;;;;;;;;5002947;28;20103;-85
2023/06/11 11:06:55;;;;;;;0.40;0.30;;;;;;;;;;5009175;28;20125;-82
2023/06/11 11:09:24;;;;;;;0.30;0.20;;;;;;;;;;5008686;28;20520;-81
2023/06/11 11:11:52;;;;;;;0.30;0.30;;;;;;;;;;5028824;22;20081;-78
2023/06/11 11:14:18;;;;;;;0.43;0.13;;;;;;;;;;5015988;28;20053;-78
2023/06/11 11:16:48;;;;;;;0.30;0.20;;;;;;;;;;5003964;28;20048;-79
2023/06/11 11:19:14;;;;;;;0.20;0.20;;;;;;;;;;4996575;28;20561;-82
2023/06/11 11:21:40;;;;;;;0.43;0.40;;;;;;;;;;5002064;28;20044;-79
2023/06/11 11:24:12;;;;;;;0.40;0.40;;;;;;;;;;4975934;28;20413;-78
2023/06/11 11:26:45;;;;;;;0.80;0.32;;;;;;;;;;4994339;28;20046;-81
2023/06/11 11:29:11;;;;;;;0.30;0.28;;;;;;;;;;4977597;28;20205;-80
2023/06/11 11:31:38;;;;;;;0.45;0.32;;;;;;;;;;4984841;28;20125;-80
2023/06/11 11:34:04;;;;;;;0.20;0.20;;;;;;;;;;4992659;28;20041;-81
2023/06/11 11:36:35;;;;;;;0.20;0.20;;;;;;;;;;4995436;28;20061;-79
2023/06/11 11:39:11;;;;;;;0.75;0.20;;;;;;;;;;4975118;28;20049;-79
2023/06/11 11:41:50;;;;;;;0.20;0.20;;;;;;;;;;4972539;28;20045;-82
2023/06/11 11:44:16;;;;;;;0.68;0.35;;;;;;;;;;4968699;28;20042;-78
2023/06/11 11:46:43;;;;;;;0.30;0.30;;;;;;;;;;4972935;28;20053;-77
2023/06/11 11:49:09;;;;;;;0.20;0.10;;;;;;;;;;4993225;28;20053;-78
2023/06/11 11:51:40;;;;;;;0.20;0.20;;;;;;;;;;4978643;28;20044;-80
2023/06/11 11:54:07;;;;;;;0.20;0.20;;;;;;;;;;4986896;28;20148;-80
2023/06/11 11:56:33;;;;;;;0.57;0.57;;;;;;;;;;4987767;28;20530;-81
2023/06/11 11:58:59;;;;;;;0.50;0.30;;;;;;;;;;4985572;28;20772;-81
2023/06/11 12:01:36;;;;;;;0.30;0.13;;;;;;;;;;4972486;28;20057;-80
2023/06/11 12:04:03;;;;;;;0.28;0.20;;;;;;;;;;4991200;28;20144;-79
2023/06/11 12:06:30;;;;;;;0.30;0.25;;;;;;;;;;4982708;28;20498;-79
2023/06/11 12:08:56;;;;;;;0.32;0.22;;;;;;;;;;4988192;28;20392;-81
2023/06/11 12:11:22;;;;;;;0.50;0.45;;;;;;;;;;4994741;28;21755;-78
2023/06/11 12:13:48;;;;;;;0.30;0.30;;;;;;;;;;4993270;28;20045;-81
2023/06/11 12:16:15;;;;;;;0.40;0.20;;;;;;;;;;5009783;28;20042;-77
2023/06/11 12:18:41;;;;;;;0.32;0.30;;;;;;;;;;4995723;28;20054;-80
2023/06/11 12:21:07;;;;;;;0.47;0.30;;;;;;;;;;4995442;28;20073;-80
2023/06/11 12:23:33;;;;;;;0.20;0.20;;;;;;;;;;4996366;28;20042;-83
2023/06/11 12:26:01;;;;;;;0.70;0.70;;;;;;;;;;4991927;28;20087;-80
2023/06/11 12:28:27;;;;;;;0.40;0.35;;;;;;;;;;4994456;28;20743;-81
2023/06/11 12:30:53;;;;;;;0.20;0.20;;;;;;;;;;4993796;28;20045;-79
2023/06/11 12:33:22;;;;;;;0.25;0.13;;;;;;;;;;4977464;28;20430;-83
2023/06/11 12:35:48;;;;;;;0.57;0.30;;;;;;;;;;4997980;28;20044;-77
2023/06/11 12:38:15;;;;;;;0.20;0.20;;;;;;;;;;4974421;28;20037;-80
2023/06/11 12:40:41;;;;;;;0.30;0.20;;;;;;;;;;4996255;28;20046;-82
2023/06/11 12:43:10;;;;;;;0.30;0.20;;;;;;;;;;4994008;28;20064;-81
2023/06/11 12:45:37;;;;;;;0.22;0.20;;;;;;;;;;4991119;28;20046;-80
2023/06/11 12:48:03;;;;;;;0.22;0.20;;;;;;;;;;4998153;28;20541;-81
2023/06/11 12:50:29;;;;;;;0.30;0.20;;;;;;;;;;4996087;28;20046;-79
2023/06/11 12:52:56;;;;;;;0.30;0.20;;;;;;;;;;4998776;28;20123;-83
2023/06/11 12:55:24;;;;;;;1.10;0.47;;;;;;;;;;4985726;28;20041;-81
2023/06/11 12:57:50;;;;;;;0.30;0.30;;;;;;;;;;4988078;28;20053;-82
2023/06/11 13:00:16;;;;;;;0.38;0.28;;;;;;;;;;4978185;28;20038;-84
2023/06/11 13:02:43;;;;;;;1.10;0.65;;;;;;;;;;4990968;28;20053;-80
2023/06/11 13:05:09;;;;;;;0.40;0.30;;;;;;;;;;4993464;28;20051;-80
2023/06/11 13:07:35;;;;;;;0.20;0.20;;;;;;;;;;4975042;28;20045;-80
2023/06/11 13:10:02;;;;;;;0.75;0.43;;;;;;;;;;4997801;28;20525;-80
2023/06/11 13:12:28;;;;;;;0.90;0.35;;;;;;;;;;4970044;28;20045;-80
2023/06/11 13:14:57;;;;;;;0.50;0.22;;;;;;;;;;4986002;28;20134;-80
2023/06/11 13:17:23;;;;;;;0.20;0.20;;;;;;;;;;4984911;28;20218;-80
2023/06/11 13:19:49;;;;;;;0.25;0.25;;;;;;;;;;4971650;28;20042;-81
2023/06/11 13:22:16;;;;;;;0.70;0.50;;;;;;;;;;4987861;28;20042;-81
2023/06/11 13:24:42;;;;;;;0.35;0.30;;;;;;;;;;4960881;28;20078;-80
2023/06/11 13:27:08;;;;;;;0.40;0.28;;;;;;;;;;4982525;28;20073;-79
2023/06/11 13:29:34;;;;;;;0.32;0.30;;;;;;;;;;4989086;28;20125;-81
2023/06/11 13:32:00;;;;;;;0.52;0.38;;;;;;;;;;4970552;28;20581;-82
2023/06/11 13:34:26;;;;;;;0.30;0.30;;;;;;;;;;4967115;28;20050;-81
2023/06/11 13:36:55;;;;;;;0.32;0.30;;;;;;;;;;4982998;28;20050;-81
2023/06/11 13:39:22;;;;;;;0.30;0.30;;;;;;;;;;4987969;28;20038;-78
2023/06/11 13:41:48;;;;;;;0.20;0.10;;;;;;;;;;4968829;28;20323;-78
2023/06/11 13:44:14;;;;;;;0.30;0.30;;;;;;;;;;4976499;28;20042;-80
2023/06/11 13:46:41;;;;;;;0.20;0.10;;;;;;;;;;4964364;28;20445;-78
2023/06/11 13:49:07;;;;;;;0.20;0.20;;;;;;;;;;4965149;28;20270;-81
2023/06/11 13:51:33;;;;;;;0.40;0.30;;;;;;;;;;4964513;28;20037;-80
2023/06/11 13:54:00;;;;;;;0.52;0.40;;;;;;;;;;4977194;28;20121;-82
2023/06/11 13:56:26;;;;;;;0.55;0.40;;;;;;;;;;4979597;28;20453;-79
2023/06/11 13:58:52;;;;;;;0.20;0.20;;;;;;;;;;4984191;28;20112;-80
2023/06/11 14:01:18;;;;;;;0.63;0.30;;;;;;;;;;4991597;28;20376;-80
2023/06/11 14:03:44;;;;;;;0.45;0.30;;;;;;;;;;4981751;28;20046;-80
2023/06/11 14:06:11;;;;;;;0.20;0.20;;;;;;;;;;4987487;28;20042;-79
2023/06/11 14:08:37;;;;;;;0.22;0.20;;;;;;;;;;4984453;28;20042;-79
2023/06/11 14:11:04;;;;;;;1.55;0.28;;;;;;;;;;4987231;28;20049;-80
2023/06/11 14:13:30;;;;;;;0.20;0.20;;;;;;;;;;4989760;28;20052;-82
2023/06/11 14:15:56;;;;;;;0.30;0.30;;;;;;;;;;4992267;28;20286;-80
2023/06/11 14:18:22;;;;;;;0.30;0.22;;;;;;;;;;4975776;28;21156;-81
2023/06/11 14:20:48;;;;;;;0.30;0.25;;;;;;;;;;4994559;28;20037;-79
2023/06/11 14:23:15;;;;;;;0.50;0.30;;;;;;;;;;4997001;28;20033;-79
2023/06/11 14:25:40;;;;;;;0.30;0.28;;;;;;;;;;4992883;28;20077;-81
2023/06/11 14:28:07;;;;;;;0.43;0.38;;;;;;;;;;5009812;28;20166;-79
2023/06/11 14:30:33;;;;;;;0.75;0.40;;;;;;;;;;4993667;28;20167;-80
2023/06/11 14:32:59;;;;;;;0.20;0.20;;;;;;;;;;4996011;28;20095;-80
2023/06/11 14:35:25;;;;;;;0.50;0.30;;;;;;;;;;4985800;28;20042;-79
2023/06/11 14:37:51;;;;;;;0.32;0.32;;;;;;;;;;4989229;28;20095;-79
2023/06/11 14:40:17;;;;;;;0.40;0.30;;;;;;;;;;4993013;28;20106;-79
2023/06/11 14:42:43;;;;;;;0.30;0.30;;;;;;;;;;4989762;28;20045;-79